createdAt,value
2022-10-23T00:00:02.153Z,0.00
2022-10-23T00:01:02.189Z,0.00
2022-10-23T00:02:02.298Z,0.00
2022-10-23T00:03:02.589Z,0.00
2022-10-23T00:04:02.706Z,0.00
2022-10-23T00:05:02.608Z,0.00
2022-10-23T00:06:02.111Z,0.00
2022-10-23T00:07:03.367Z,0.00
2022-10-23T00:08:02.851Z,0.00
2022-10-23T00:09:03.296Z,0.00
2022-10-23T00:10:02.777Z,0.00
2022-10-23T00:11:03.404Z,0.00
2022-10-23T00:12:02.078Z,0.00
2022-10-23T00:13:02.724Z,0.00
2022-10-23T00:14:02.123Z,0.00
2022-10-23T00:15:02.413Z,0.00
2022-10-23T00:16:02.282Z,0.00
2022-10-23T00:17:02.523Z,0.00
2022-10-23T00:18:02.702Z,0.00
2022-10-23T00:19:02.769Z,0.00
2022-10-23T00:20:02.291Z,0.00
2022-10-23T00:21:02.690Z,0.00
2022-10-23T00:22:03.045Z,0.00
2022-10-23T00:23:02.748Z,0.00
2022-10-23T00:24:02.662Z,0.00
2022-10-23T00:25:02.587Z,0.00
2022-10-23T00:26:03.221Z,0.00
2022-10-23T00:27:03.228Z,0.00
2022-10-23T00:28:03.105Z,0.00
2022-10-23T00:29:02.922Z,0.00
2022-10-23T00:30:03.004Z,0.00
2022-10-23T00:31:02.935Z,0.00
2022-10-23T00:32:02.910Z,0.00
2022-10-23T00:33:03.091Z,0.00
2022-10-23T00:34:03.131Z,0.00
2022-10-23T00:35:02.752Z,0.00
2022-10-23T00:36:02.579Z,0.00
2022-10-23T00:37:02.974Z,0.00
2022-10-23T00:38:03.504Z,0.00
2022-10-23T00:39:03.062Z,0.00
2022-10-23T00:40:02.884Z,0.00
2022-10-23T00:41:03.177Z,0.00
2022-10-23T00:42:02.356Z,0.00
2022-10-23T00:43:02.203Z,0.00
2022-10-23T00:44:02.593Z,0.00
2022-10-23T00:45:02.263Z,0.00
2022-10-23T00:46:02.597Z,0.00
2022-10-23T00:47:02.674Z,0.00
2022-10-23T00:48:02.543Z,0.00
2022-10-23T00:49:02.408Z,0.00
2022-10-23T00:50:02.431Z,0.00
2022-10-23T00:51:02.372Z,0.00
2022-10-23T00:52:02.733Z,0.00
2022-10-23T00:53:02.680Z,0.00
2022-10-23T00:54:23.059Z,0.00
2022-10-23T00:55:02.672Z,0.00
2022-10-23T00:56:02.440Z,0.00
2022-10-23T00:57:02.302Z,0.00
2022-10-23T00:58:02.599Z,0.00
2022-10-23T00:59:02.869Z,0.00
2022-10-23T01:00:02.438Z,0.00
2022-10-23T01:01:02.861Z,0.00
2022-10-23T01:02:02.635Z,0.00
2022-10-23T01:03:02.543Z,0.00
2022-10-23T01:04:02.565Z,0.00
2022-10-23T01:05:02.657Z,0.00
2022-10-23T01:06:02.461Z,0.00
2022-10-23T01:07:02.961Z,0.00
2022-10-23T01:08:03.440Z,0.00
2022-10-23T01:09:03.228Z,0.00
2022-10-23T01:10:03.019Z,0.00
2022-10-23T01:11:03.459Z,0.00
2022-10-23T01:12:03.239Z,0.00
2022-10-23T01:13:03.640Z,0.00
2022-10-23T01:15:03.302Z,0.00
2022-10-23T01:16:03.846Z,0.00
2022-10-23T01:17:02.461Z,0.00
2022-10-23T01:18:02.699Z,0.00
2022-10-23T01:19:02.343Z,0.00
2022-10-23T01:20:02.428Z,0.00
2022-10-23T01:21:02.617Z,0.00
2022-10-23T01:22:03.329Z,0.00
2022-10-23T01:23:03.189Z,0.00
2022-10-23T01:24:03.568Z,0.00
2022-10-23T01:25:03.444Z,0.00
2022-10-23T01:26:03.282Z,0.00
2022-10-23T01:27:03.153Z,0.00
2022-10-23T01:28:03.045Z,0.00
2022-10-23T01:29:02.844Z,0.00
2022-10-23T01:30:03.242Z,0.00
2022-10-23T01:31:02.860Z,0.00
2022-10-23T01:32:03.366Z,0.00
2022-10-23T01:33:03.853Z,0.00
2022-10-23T01:34:03.861Z,0.00
2022-10-23T01:35:03.572Z,0.00
2022-10-23T01:36:03.236Z,0.00
2022-10-23T01:37:02.487Z,0.00
2022-10-23T01:38:02.522Z,0.00
2022-10-23T01:40:02.644Z,0.00
2022-10-23T01:41:02.562Z,0.00
2022-10-23T01:42:02.955Z,0.00
2022-10-23T01:43:03.038Z,0.00
2022-10-23T01:44:03.232Z,0.00
2022-10-23T01:45:03.172Z,0.00
2022-10-23T01:46:03.413Z,0.00
2022-10-23T01:47:03.290Z,0.00
2022-10-23T01:48:03.222Z,0.00
2022-10-23T01:49:03.457Z,0.00
2022-10-23T01:50:03.269Z,0.00
2022-10-23T01:51:03.216Z,0.00
2022-10-23T01:52:02.611Z,0.00
2022-10-23T01:53:02.917Z,0.00
2022-10-23T01:54:02.528Z,0.00
2022-10-23T01:55:02.953Z,0.00
2022-10-23T01:56:02.979Z,0.00
2022-10-23T01:57:02.865Z,0.00
2022-10-23T01:58:02.750Z,0.00
2022-10-23T01:59:02.955Z,0.00
2022-10-23T02:00:03.072Z,0.00
2022-10-23T02:01:02.770Z,0.00
2022-10-23T02:02:02.438Z,0.00
2022-10-23T02:03:02.529Z,0.00
2022-10-23T02:04:02.367Z,0.00
2022-10-23T02:05:02.189Z,0.00
2022-10-23T02:06:02.623Z,0.00
2022-10-23T02:07:02.899Z,0.00
2022-10-23T02:08:02.952Z,0.00
2022-10-23T02:09:03.016Z,0.00
2022-10-23T02:10:02.911Z,0.00
2022-10-23T02:11:02.693Z,0.00
2022-10-23T02:12:02.331Z,0.00
2022-10-23T02:13:01.961Z,0.00
2022-10-23T02:14:02.419Z,0.00
2022-10-23T02:15:02.097Z,0.00
2022-10-23T02:16:02.336Z,0.00
2022-10-23T02:17:02.962Z,0.00
2022-10-23T02:18:02.530Z,0.00
2022-10-23T02:19:02.482Z,0.00
2022-10-23T02:20:02.742Z,0.00
2022-10-23T02:21:02.590Z,0.00
2022-10-23T02:22:03.305Z,0.00
2022-10-23T02:23:03.183Z,0.00
2022-10-23T02:24:02.734Z,0.00
2022-10-23T02:25:03.055Z,0.00
2022-10-23T02:26:02.994Z,0.00
2022-10-23T02:27:02.482Z,0.00
2022-10-23T02:28:02.015Z,0.00
2022-10-23T02:29:02.587Z,0.00
2022-10-23T02:30:02.166Z,0.00
2022-10-23T02:31:02.289Z,0.00
2022-10-23T02:32:02.317Z,0.00
2022-10-23T02:33:02.542Z,0.00
2022-10-23T02:34:02.517Z,0.00
2022-10-23T02:35:02.331Z,0.00
2022-10-23T02:36:02.850Z,0.00
2022-10-23T02:37:03.025Z,0.00
2022-10-23T02:38:02.858Z,0.00
2022-10-23T02:39:03.278Z,0.00
2022-10-23T02:40:03.149Z,0.00
2022-10-23T02:41:03.264Z,0.00
2022-10-23T02:42:02.901Z,0.00
2022-10-23T02:43:02.547Z,0.00
2022-10-23T02:44:02.326Z,0.00
2022-10-23T02:45:02.380Z,0.00
2022-10-23T02:46:02.444Z,0.00
2022-10-23T02:47:02.999Z,0.00
2022-10-23T02:48:03.363Z,0.00
2022-10-23T02:49:03.235Z,0.00
2022-10-23T02:50:03.327Z,0.00
2022-10-23T02:51:03.337Z,0.00
2022-10-23T02:52:02.865Z,0.00
2022-10-23T02:53:02.693Z,0.00
2022-10-23T02:54:02.348Z,0.00
2022-10-23T02:55:02.926Z,0.00
2022-10-23T02:56:02.619Z,0.00
2022-10-23T02:57:03.179Z,0.00
2022-10-23T02:58:02.954Z,0.00
2022-10-23T02:59:02.861Z,0.00
2022-10-23T03:00:02.684Z,0.00
2022-10-23T03:01:02.742Z,0.00
2022-10-23T03:02:02.419Z,0.00
2022-10-23T03:03:01.878Z,0.00
2022-10-23T03:04:01.723Z,0.00
2022-10-23T03:05:02.221Z,0.00
2022-10-23T03:06:02.008Z,0.00
2022-10-23T03:07:02.510Z,0.00
2022-10-23T03:08:02.046Z,0.00
2022-10-23T03:09:01.961Z,0.00
2022-10-23T03:10:01.954Z,0.00
2022-10-23T03:11:02.049Z,0.00
2022-10-23T03:12:02.454Z,0.00
2022-10-23T03:13:02.834Z,0.00
2022-10-23T03:14:02.803Z,0.00
2022-10-23T03:15:02.648Z,0.00
2022-10-23T03:16:02.449Z,0.00
2022-10-23T03:17:01.635Z,0.00
2022-10-23T03:18:01.755Z,0.00
2022-10-23T03:19:02.104Z,0.00
2022-10-23T03:20:01.746Z,0.00
2022-10-23T03:21:02.249Z,0.00
2022-10-23T03:22:01.719Z,0.00
2022-10-23T03:23:01.891Z,0.00
2022-10-23T03:24:02.333Z,0.00
2022-10-23T03:25:01.998Z,0.00
2022-10-23T03:26:01.728Z,0.00
2022-10-23T03:27:02.257Z,0.00
2022-10-23T03:28:02.367Z,0.00
2022-10-23T03:29:02.254Z,0.00
2022-10-23T03:30:02.849Z,0.00
2022-10-23T03:31:02.477Z,0.00
2022-10-23T03:32:02.067Z,0.00
2022-10-23T03:33:02.483Z,0.00
2022-10-23T03:34:04.129Z,0.00
2022-10-23T03:35:01.947Z,0.00
2022-10-23T03:36:02.430Z,0.00
2022-10-23T03:37:02.650Z,0.00
2022-10-23T03:38:02.454Z,0.00
2022-10-23T03:39:02.767Z,0.00
2022-10-23T03:40:02.446Z,0.00
2022-10-23T03:41:02.294Z,0.00
2022-10-23T03:42:02.076Z,0.00
2022-10-23T03:43:01.958Z,0.00
2022-10-23T03:44:02.230Z,0.00
2022-10-23T03:45:01.902Z,0.00
2022-10-23T03:46:01.838Z,0.00
2022-10-23T03:47:02.326Z,0.00
2022-10-23T03:48:02.521Z,0.00
2022-10-23T03:49:02.365Z,0.00
2022-10-23T03:50:02.813Z,0.00
2022-10-23T03:51:02.778Z,0.00
2022-10-23T03:52:01.659Z,0.00
2022-10-23T03:53:01.887Z,0.00
2022-10-23T03:54:01.691Z,0.00
2022-10-23T03:55:01.489Z,0.00
2022-10-23T03:56:01.974Z,0.00
2022-10-23T03:57:01.754Z,0.00
2022-10-23T03:58:01.655Z,0.00
2022-10-23T03:59:01.985Z,0.00
2022-10-23T04:00:01.706Z,0.00
2022-10-23T04:01:01.994Z,0.00
2022-10-23T04:02:03.788Z,0.00
2022-10-23T04:03:03.523Z,0.00
2022-10-23T04:04:03.454Z,0.00
2022-10-23T04:05:03.278Z,0.00
2022-10-23T04:06:03.688Z,0.00
2022-10-23T04:07:03.016Z,0.00
2022-10-23T04:08:02.577Z,0.00
2022-10-23T04:09:03.082Z,0.00
2022-10-23T04:10:02.639Z,0.00
2022-10-23T04:11:03.116Z,0.00
2022-10-23T04:12:03.682Z,0.00
2022-10-23T04:13:03.337Z,0.00
2022-10-23T04:14:03.239Z,0.00
2022-10-23T04:15:03.077Z,0.00
2022-10-23T04:16:03.413Z,0.00
2022-10-23T04:17:03.064Z,0.00
2022-10-23T04:18:03.227Z,0.00
2022-10-23T04:19:03.268Z,0.00
2022-10-23T04:20:03.196Z,0.00
2022-10-23T04:21:03.713Z,0.00
2022-10-23T04:22:03.136Z,0.00
2022-10-23T04:23:03.746Z,0.00
2022-10-23T04:24:03.695Z,0.00
2022-10-23T04:25:03.605Z,0.00
2022-10-23T04:26:03.576Z,0.00
2022-10-23T04:27:03.575Z,0.00
2022-10-23T04:28:03.441Z,0.00
2022-10-23T04:29:03.829Z,0.00
2022-10-23T04:30:03.589Z,0.00
2022-10-23T04:31:03.421Z,0.00
2022-10-23T04:32:02.843Z,0.00
2022-10-23T04:33:03.002Z,0.00
2022-10-23T04:34:03.329Z,0.00
2022-10-23T04:35:02.797Z,0.00
2022-10-23T04:36:03.326Z,0.00
2022-10-23T04:37:03.263Z,0.00
2022-10-23T04:38:03.520Z,0.00
2022-10-23T04:39:03.217Z,0.00
2022-10-23T04:40:03.026Z,0.00
2022-10-23T04:41:03.547Z,0.00
2022-10-23T04:42:03.089Z,0.00
2022-10-23T04:43:02.787Z,0.00
2022-10-23T04:44:02.680Z,0.00
2022-10-23T04:45:02.880Z,0.00
2022-10-23T04:46:02.671Z,0.00
2022-10-23T04:47:03.232Z,0.00
2022-10-23T04:48:03.209Z,0.00
2022-10-23T04:49:03.139Z,0.00
2022-10-23T04:50:03.003Z,0.00
2022-10-23T04:51:03.082Z,0.00
2022-10-23T04:52:03.639Z,0.00
2022-10-23T04:53:03.680Z,0.00
2022-10-23T04:54:03.320Z,0.00
2022-10-23T04:55:03.624Z,0.00
2022-10-23T04:56:03.490Z,0.00
2022-10-23T04:57:03.353Z,0.00
2022-10-23T04:58:03.386Z,0.00
2022-10-23T04:59:02.983Z,0.00
2022-10-23T05:00:02.868Z,0.00
2022-10-23T05:01:03.122Z,0.00
2022-10-23T05:02:02.714Z,0.00
2022-10-23T05:03:02.525Z,0.00
2022-10-23T05:04:02.914Z,0.00
2022-10-23T05:05:02.594Z,0.00
2022-10-23T05:06:02.488Z,0.00
2022-10-23T05:07:02.403Z,0.00
2022-10-23T05:08:02.899Z,0.00
2022-10-23T05:09:02.706Z,0.00
2022-10-23T05:10:02.684Z,0.00
2022-10-23T05:11:02.345Z,0.00
2022-10-23T05:12:02.786Z,0.00
2022-10-23T05:13:02.637Z,0.00
2022-10-23T05:14:03.025Z,0.00
2022-10-23T05:15:02.719Z,0.00
2022-10-23T05:16:02.799Z,0.00
2022-10-23T05:17:03.365Z,0.00
2022-10-23T05:18:03.582Z,0.00
2022-10-23T05:19:03.323Z,0.00
2022-10-23T05:20:03.557Z,0.00
2022-10-23T05:21:03.405Z,0.00
2022-10-23T05:22:02.877Z,0.00
2022-10-23T05:23:02.497Z,0.00
2022-10-23T05:24:02.656Z,0.00
2022-10-23T05:25:02.866Z,0.00
2022-10-23T05:26:02.755Z,0.00
2022-10-23T05:27:03.302Z,0.00
2022-10-23T05:28:03.318Z,0.00
2022-10-23T05:29:03.225Z,0.00
2022-10-23T05:30:03.101Z,0.00
2022-10-23T05:31:03.474Z,0.00
2022-10-23T05:32:02.839Z,0.00
2022-10-23T05:33:02.686Z,0.00
2022-10-23T05:34:02.407Z,0.00
2022-10-23T05:35:02.579Z,0.00
2022-10-23T05:36:02.363Z,0.00
2022-10-23T05:37:03.505Z,4.00
2022-10-23T05:38:03.421Z,4.00
2022-10-23T05:39:03.596Z,0.00
2022-10-23T05:40:03.498Z,0.00
2022-10-23T05:41:03.521Z,4.00
2022-10-23T05:42:03.157Z,4.00
2022-10-23T05:43:02.785Z,4.00
2022-10-23T05:44:03.015Z,8.00
2022-10-23T05:45:03.098Z,4.00
2022-10-23T05:46:02.911Z,4.00
2022-10-23T05:47:03.467Z,12.00
2022-10-23T05:48:10.941Z,12.00
2022-10-23T05:49:03.539Z,12.00
2022-10-23T05:50:03.018Z,16.00
2022-10-23T05:51:03.466Z,20.00
2022-10-23T05:52:03.690Z,24.00
2022-10-23T05:53:03.096Z,24.00
2022-10-23T05:54:03.077Z,28.00
2022-10-23T05:55:03.733Z,32.00
2022-10-23T05:56:03.219Z,40.00
2022-10-23T05:57:03.339Z,44.00
2022-10-23T05:58:03.045Z,52.00
2022-10-23T05:59:02.887Z,56.00
2022-10-23T06:00:03.224Z,64.00
2022-10-23T06:01:02.734Z,72.00
2022-10-23T06:02:02.326Z,80.00
2022-10-23T06:03:02.775Z,88.00
2022-10-23T06:04:02.470Z,96.00
2022-10-23T06:05:02.145Z,104.00
2022-10-23T06:06:02.205Z,116.00
2022-10-23T06:07:02.840Z,128.00
2022-10-23T06:08:02.858Z,140.00
2022-10-23T06:09:03.173Z,148.00
2022-10-23T06:10:03.333Z,164.00
2022-10-23T06:11:03.245Z,172.00
2022-10-23T06:12:02.416Z,184.00
2022-10-23T06:13:02.674Z,196.00
2022-10-23T06:14:02.196Z,208.00
2022-10-23T06:15:02.201Z,224.00
2022-10-23T06:16:02.431Z,240.00
2022-10-23T06:17:02.565Z,264.00
2022-10-23T06:18:02.867Z,292.00
2022-10-23T06:19:03.399Z,324.00
2022-10-23T06:20:02.754Z,372.00
2022-10-23T06:21:02.770Z,404.00
2022-10-23T06:22:02.646Z,448.00
2022-10-23T06:23:03.025Z,500.00
2022-10-23T06:24:02.864Z,548.00
2022-10-23T06:25:02.892Z,596.00
2022-10-23T06:26:03.151Z,660.00
2022-10-23T06:27:02.954Z,740.00
2022-10-23T06:28:03.361Z,812.00
2022-10-23T06:29:03.380Z,876.00
2022-10-23T06:30:03.292Z,928.00
2022-10-23T06:31:03.447Z,984.00
2022-10-23T06:32:02.675Z,1040.00
2022-10-23T06:33:04.607Z,1108.00
2022-10-23T06:34:02.761Z,1152.00
2022-10-23T06:35:02.759Z,1196.00
2022-10-23T06:36:02.538Z,1224.00
2022-10-23T06:37:02.743Z,1264.00
2022-10-23T06:38:02.914Z,1316.00
2022-10-23T06:39:02.719Z,1356.00
2022-10-23T06:40:03.045Z,1412.00
2022-10-23T06:41:03.036Z,1476.00
2022-10-23T06:42:03.398Z,1552.00
2022-10-23T06:43:03.171Z,1644.00
2022-10-23T06:44:03.085Z,1740.00
2022-10-23T06:45:06.367Z,1868.00
2022-10-23T06:46:03.452Z,1992.00
2022-10-23T06:47:03.649Z,2108.00
2022-10-23T06:48:03.283Z,2164.00
2022-10-23T06:49:03.211Z,2188.00
2022-10-23T06:50:03.386Z,2208.00
2022-10-23T06:51:03.269Z,2244.00
2022-10-23T06:52:02.738Z,2232.00
2022-10-23T06:53:02.330Z,2228.00
2022-10-23T06:54:02.651Z,2212.00
2022-10-23T06:55:02.300Z,2204.00
2022-10-23T06:56:02.457Z,2176.00
2022-10-23T06:57:02.438Z,2176.00
2022-10-23T06:58:02.333Z,2172.00
2022-10-23T06:59:02.289Z,2200.00
2022-10-23T07:00:02.315Z,2260.00
2022-10-23T07:01:02.629Z,2336.00
2022-10-23T07:02:03.049Z,2396.00
2022-10-23T07:03:03.050Z,2456.00
2022-10-23T07:04:03.085Z,2512.00
2022-10-23T07:05:02.927Z,2588.00
2022-10-23T07:06:02.899Z,2668.00
2022-10-23T07:07:02.481Z,2756.00
2022-10-23T07:08:02.605Z,2840.00
2022-10-23T07:09:02.633Z,2892.00
2022-10-23T07:10:02.705Z,2964.00
2022-10-23T07:11:02.606Z,3032.00
2022-10-23T07:12:02.987Z,3096.00
2022-10-23T07:13:02.820Z,3148.00
2022-10-23T07:14:02.834Z,3208.00
2022-10-23T07:15:02.794Z,3264.00
2022-10-23T07:16:02.744Z,3324.00
2022-10-23T07:17:02.472Z,3368.00
2022-10-23T07:18:02.325Z,3404.00
2022-10-23T07:19:02.460Z,3416.00
2022-10-23T07:20:02.252Z,3400.00
2022-10-23T07:21:02.158Z,3372.00
2022-10-23T07:22:02.519Z,3312.00
2022-10-23T07:23:02.368Z,3264.00
2022-10-23T07:24:02.570Z,3228.00
2022-10-23T07:25:02.354Z,3196.00
2022-10-23T07:26:02.771Z,3212.00
2022-10-23T07:27:03.123Z,3244.00
2022-10-23T07:28:03.031Z,3284.00
2022-10-23T07:29:03.028Z,3368.00
2022-10-23T07:30:03.146Z,3472.00
2022-10-23T07:31:02.752Z,3436.00
2022-10-23T07:32:02.494Z,3492.00
2022-10-23T07:33:02.489Z,3540.00
2022-10-23T07:34:02.418Z,3568.00
2022-10-23T07:35:02.457Z,3552.00
2022-10-23T07:36:02.529Z,3640.00
2022-10-23T07:37:02.465Z,3664.00
2022-10-23T07:38:02.524Z,3748.00
2022-10-23T07:39:02.306Z,3868.00
2022-10-23T07:40:02.645Z,4040.00
2022-10-23T07:41:02.541Z,4184.00
2022-10-23T07:42:02.586Z,4276.00
2022-10-23T07:43:02.439Z,4356.00
2022-10-23T07:44:02.796Z,4404.00
2022-10-23T07:45:02.491Z,4468.00
2022-10-23T07:46:02.582Z,4508.00
2022-10-23T07:47:03.148Z,4536.00
2022-10-23T07:48:03.210Z,4588.00
2022-10-23T07:49:02.830Z,4688.00
2022-10-23T07:50:02.901Z,4724.00
2022-10-23T07:51:03.187Z,4668.00
2022-10-23T07:53:03.310Z,4700.00
2022-10-23T07:54:02.830Z,4636.00
2022-10-23T07:55:03.347Z,4612.00
2022-10-23T07:56:03.432Z,4612.00
2022-10-23T07:57:02.897Z,4648.00
2022-10-23T07:58:02.911Z,4700.00
2022-10-23T07:59:02.937Z,4812.00
2022-10-23T08:00:02.828Z,4848.00
2022-10-23T08:01:03.003Z,4864.00
2022-10-23T08:02:03.046Z,4824.00
2022-10-23T08:03:02.714Z,4732.00
2022-10-23T08:04:02.624Z,4732.00
2022-10-23T08:05:02.999Z,4880.00
2022-10-23T08:06:02.529Z,5112.00
2022-10-23T08:07:02.266Z,5256.00
2022-10-23T08:08:02.381Z,5444.00
2022-10-23T08:09:05.420Z,5620.00
2022-10-23T08:10:02.411Z,7384.00
2022-10-23T08:11:02.210Z,11648.00
2022-10-23T08:12:02.977Z,13696.00
2022-10-23T08:13:02.927Z,9680.00
2022-10-23T08:14:02.720Z,10560.00
2022-10-23T08:15:02.669Z,11360.00
2022-10-23T08:16:02.960Z,12436.00
2022-10-23T08:18:02.508Z,7896.00
2022-10-23T08:19:02.160Z,8044.00
2022-10-23T08:20:02.074Z,8320.00
2022-10-23T08:21:02.198Z,8884.00
2022-10-23T08:22:02.278Z,8812.00
2022-10-23T08:23:02.065Z,9312.00
2022-10-23T08:24:01.831Z,8624.00
2022-10-23T08:25:01.914Z,7676.00
2022-10-23T08:26:02.064Z,7288.00
2022-10-23T08:27:02.202Z,7580.00
2022-10-23T08:28:05.547Z,6796.00
2022-10-23T08:29:02.396Z,6696.00
2022-10-23T08:30:02.815Z,6732.00
2022-10-23T08:31:02.851Z,9732.00
2022-10-23T08:32:02.881Z,6984.00
2022-10-23T08:33:02.663Z,6128.00
2022-10-23T08:34:02.292Z,6340.00
2022-10-23T08:35:02.819Z,6780.00
2022-10-23T08:36:02.270Z,7464.00
2022-10-23T08:37:02.997Z,8068.00
2022-10-23T08:38:02.464Z,8888.00
2022-10-23T08:39:02.905Z,10276.00
2022-10-23T08:40:02.965Z,9292.00
2022-10-23T08:41:02.809Z,9588.00
2022-10-23T08:42:03.217Z,11260.00
2022-10-23T08:43:02.818Z,15744.00
2022-10-23T08:44:03.015Z,12252.00
2022-10-23T08:45:02.967Z,15552.00
2022-10-23T08:46:04.230Z,14176.00
2022-10-23T08:47:02.623Z,12752.00
2022-10-23T08:48:02.346Z,12744.00
2022-10-23T08:49:02.354Z,12836.00
2022-10-23T08:50:02.419Z,12148.00
2022-10-23T08:51:02.494Z,10416.00
2022-10-23T08:52:03.204Z,11564.00
2022-10-23T08:53:03.154Z,11412.00
2022-10-23T08:54:03.005Z,9252.00
2022-10-23T08:55:02.949Z,12192.00
2022-10-23T08:56:02.999Z,8892.00
2022-10-23T08:57:01.744Z,10616.00
2022-10-23T08:58:02.360Z,12112.00
2022-10-23T08:59:02.014Z,11004.00
2022-10-23T09:00:01.980Z,11148.00
2022-10-23T09:01:02.265Z,12208.00
2022-10-23T09:02:02.797Z,11644.00
2022-10-23T09:03:02.559Z,7264.00
2022-10-23T09:04:02.566Z,7528.00
2022-10-23T09:05:02.512Z,7512.00
2022-10-23T09:06:02.330Z,8524.00
2022-10-23T09:07:02.404Z,11100.00
2022-10-23T09:08:02.422Z,8776.00
2022-10-23T09:09:02.996Z,9156.00
2022-10-23T09:10:02.812Z,10328.00
2022-10-23T09:11:02.807Z,16800.00
2022-10-23T09:12:02.535Z,11288.00
2022-10-23T09:13:02.981Z,17056.00
2022-10-23T09:14:02.994Z,20352.00
2022-10-23T09:15:02.953Z,15072.00
2022-10-23T09:16:02.835Z,23104.00
2022-10-23T09:17:01.940Z,22208.00
2022-10-23T09:18:02.390Z,13164.00
2022-10-23T09:19:02.382Z,22080.00
2022-10-23T09:20:01.821Z,18880.00
2022-10-23T09:21:02.009Z,22304.00
2022-10-23T09:22:02.144Z,22528.00
2022-10-23T09:23:02.067Z,24032.00
2022-10-23T09:24:02.160Z,24480.00
2022-10-23T09:25:02.303Z,22880.00
2022-10-23T09:26:02.085Z,19744.00
2022-10-23T09:27:02.806Z,18880.00
2022-10-23T09:28:05.472Z,18848.00
2022-10-23T09:29:03.114Z,19456.00
2022-10-23T09:30:03.285Z,16896.00
2022-10-23T09:31:03.199Z,15200.00
2022-10-23T09:32:02.096Z,16800.00
2022-10-23T09:33:02.037Z,18368.00
2022-10-23T09:34:02.057Z,11208.00
2022-10-23T09:35:02.088Z,10628.00
2022-10-23T09:36:02.649Z,10420.00
2022-10-23T09:37:02.412Z,9896.00
2022-10-23T09:38:02.351Z,9268.00
2022-10-23T09:39:02.469Z,10288.00
2022-10-23T09:40:02.775Z,9924.00
2022-10-23T09:41:02.811Z,10176.00
2022-10-23T09:42:02.816Z,10060.00
2022-10-23T09:43:02.930Z,9988.00
2022-10-23T09:44:02.975Z,9504.00
2022-10-23T09:45:02.909Z,9268.00
2022-10-23T09:46:02.834Z,9356.00
2022-10-23T09:47:02.571Z,9060.00
2022-10-23T09:48:02.970Z,9192.00
2022-10-23T09:49:05.043Z,9328.00
2022-10-23T09:50:02.898Z,9116.00
2022-10-23T09:51:02.933Z,9352.00
2022-10-23T09:52:02.862Z,9388.00
2022-10-23T09:53:02.777Z,9704.00
2022-10-23T09:54:02.736Z,9480.00
2022-10-23T09:55:02.727Z,9336.00
2022-10-23T09:56:02.739Z,9260.00
2022-10-23T09:57:02.378Z,8740.00
2022-10-23T09:58:02.564Z,8736.00
2022-10-23T09:59:02.499Z,8788.00
2022-10-23T10:00:02.554Z,9064.00
2022-10-23T10:01:02.894Z,9268.00
2022-10-23T10:02:03.013Z,9904.00
2022-10-23T10:03:02.809Z,9488.00
2022-10-23T10:04:02.719Z,9608.00
2022-10-23T10:05:02.756Z,9492.00
2022-10-23T10:06:02.790Z,9672.00
2022-10-23T10:07:02.949Z,10120.00
2022-10-23T10:08:02.981Z,10176.00
2022-10-23T10:09:03.249Z,9568.00
2022-10-23T10:10:03.257Z,11012.00
2022-10-23T10:11:03.148Z,11248.00
2022-10-23T10:12:03.425Z,10704.00
2022-10-23T10:13:03.363Z,10596.00
2022-10-23T10:14:03.468Z,10660.00
2022-10-23T10:15:03.244Z,10036.00
2022-10-23T10:16:03.270Z,9624.00
2022-10-23T10:17:03.157Z,9428.00
2022-10-23T10:18:03.167Z,9448.00
2022-10-23T10:19:03.030Z,9596.00
2022-10-23T10:20:05.449Z,10756.00
2022-10-23T10:21:02.981Z,10824.00
2022-10-23T10:22:03.588Z,10680.00
2022-10-23T10:23:03.620Z,10264.00
2022-10-23T10:24:03.534Z,9660.00
2022-10-23T10:25:03.521Z,9532.00
2022-10-23T10:26:03.542Z,9688.00
2022-10-23T10:27:03.262Z,8912.00
2022-10-23T10:28:02.774Z,8628.00
2022-10-23T10:29:02.839Z,9084.00
2022-10-23T10:30:03.275Z,9680.00
2022-10-23T10:31:03.269Z,9524.00
2022-10-23T10:32:03.650Z,9188.00
2022-10-23T10:33:03.785Z,8764.00
2022-10-23T10:34:03.610Z,8724.00
2022-10-23T10:35:03.544Z,8648.00
2022-10-23T10:36:03.618Z,8468.00
2022-10-23T10:37:03.337Z,8004.00
2022-10-23T10:38:02.990Z,7584.00
2022-10-23T10:39:02.970Z,7260.00
2022-10-23T10:40:02.998Z,7064.00
2022-10-23T10:41:03.542Z,6880.00
2022-10-23T10:42:03.768Z,6736.00
2022-10-23T10:43:03.570Z,6788.00
2022-10-23T10:44:03.604Z,6760.00
2022-10-23T10:45:03.891Z,6884.00
2022-10-23T10:46:03.964Z,7032.00
2022-10-23T10:47:03.228Z,7396.00
2022-10-23T10:48:03.480Z,7488.00
2022-10-23T10:49:03.080Z,7428.00
2022-10-23T10:50:03.314Z,7488.00
2022-10-23T10:51:02.995Z,7620.00
2022-10-23T10:52:03.558Z,8008.00
2022-10-23T10:53:03.566Z,8428.00
2022-10-23T10:54:03.751Z,8440.00
2022-10-23T10:55:03.322Z,8124.00
2022-10-23T10:56:03.325Z,7836.00
2022-10-23T10:57:03.258Z,7668.00
2022-10-23T10:58:03.095Z,7432.00
2022-10-23T10:59:02.701Z,7200.00
2022-10-23T11:00:02.653Z,6864.00
2022-10-23T11:01:02.998Z,6644.00
2022-10-23T11:02:02.598Z,6184.00
2022-10-23T11:03:02.433Z,6092.00
2022-10-23T11:04:02.425Z,5992.00
2022-10-23T11:05:02.614Z,5920.00
2022-10-23T11:06:02.376Z,5880.00
2022-10-23T11:07:02.852Z,5780.00
2022-10-23T11:08:02.389Z,5524.00
2022-10-23T11:09:19.375Z,5168.00
2022-10-23T11:10:02.610Z,4432.00
2022-10-23T11:11:02.664Z,3816.00
2022-10-23T11:12:02.915Z,3320.00
2022-10-23T11:13:02.662Z,2960.00
2022-10-23T11:14:02.539Z,2748.00
2022-10-23T11:15:02.945Z,2664.00
2022-10-23T11:16:02.699Z,2552.00
2022-10-23T11:17:02.421Z,2588.00
2022-10-23T11:18:01.947Z,2616.00
2022-10-23T11:19:01.982Z,2740.00
2022-10-23T11:20:02.594Z,2824.00
2022-10-23T11:21:02.203Z,3052.00
2022-10-23T11:22:03.112Z,3508.00
2022-10-23T11:23:02.831Z,3828.00
2022-10-23T11:24:02.947Z,4048.00
2022-10-23T11:25:02.931Z,4268.00
2022-10-23T11:26:03.086Z,4304.00
2022-10-23T11:27:02.003Z,4388.00
2022-10-23T11:28:04.444Z,4380.00
2022-10-23T11:29:02.019Z,4444.00
2022-10-23T11:30:02.059Z,4724.00
2022-10-23T11:31:02.105Z,5092.00
2022-10-23T11:32:02.085Z,5400.00
2022-10-23T11:33:02.670Z,5856.00
2022-10-23T11:34:02.232Z,6620.00
2022-10-23T11:35:02.140Z,7408.00
2022-10-23T11:36:02.184Z,7788.00
2022-10-23T11:37:02.181Z,7892.00
2022-10-23T11:38:02.834Z,8076.00
2022-10-23T11:39:02.459Z,8344.00
2022-10-23T11:40:02.319Z,8232.00
2022-10-23T11:41:02.240Z,7812.00
2022-10-23T11:42:02.377Z,7428.00
2022-10-23T11:43:02.961Z,7160.00
2022-10-23T11:44:02.522Z,7440.00
2022-10-23T11:45:02.968Z,8344.00
2022-10-23T11:46:02.505Z,9016.00
2022-10-23T11:47:02.482Z,9884.00
2022-10-23T11:48:03.139Z,9624.00
2022-10-23T11:49:02.991Z,9368.00
2022-10-23T11:50:03.038Z,9416.00
2022-10-23T11:51:05.086Z,9116.00
2022-10-23T11:52:02.926Z,9220.00
2022-10-23T11:53:13.399Z,9844.00
2022-10-23T11:54:02.519Z,9184.00
2022-10-23T11:55:02.182Z,9348.00
2022-10-23T11:56:02.466Z,10072.00
2022-10-23T11:57:02.239Z,10488.00
2022-10-23T11:58:02.464Z,10500.00
2022-10-23T11:59:02.562Z,10468.00
2022-10-23T12:00:02.598Z,10936.00
2022-10-23T12:01:02.811Z,10760.00
2022-10-23T12:02:02.770Z,10940.00
2022-10-23T12:03:03.028Z,10712.00
2022-10-23T12:04:03.062Z,10260.00
2022-10-23T12:05:03.513Z,10604.00
2022-10-23T12:06:03.298Z,9808.00
2022-10-23T12:07:03.256Z,9860.00
2022-10-23T12:08:02.955Z,10892.00
2022-10-23T12:09:03.043Z,9484.00
2022-10-23T12:10:03.065Z,8660.00
2022-10-23T12:11:02.710Z,9248.00
2022-10-23T12:12:02.703Z,9292.00
2022-10-23T12:13:03.487Z,9012.00
2022-10-23T12:14:03.550Z,8956.00
2022-10-23T12:15:03.423Z,9204.00
2022-10-23T12:16:03.411Z,9032.00
2022-10-23T12:17:03.304Z,9628.00
2022-10-23T12:18:03.120Z,9944.00
2022-10-23T12:19:02.992Z,9584.00
2022-10-23T12:20:03.031Z,10204.00
2022-10-23T12:21:02.889Z,11040.00
2022-10-23T12:22:03.257Z,10512.00
2022-10-23T12:23:03.255Z,9972.00
2022-10-23T12:24:03.158Z,9624.00
2022-10-23T12:25:03.165Z,9740.00
2022-10-23T12:26:03.037Z,9548.00
2022-10-23T12:27:02.967Z,9292.00
2022-10-23T12:28:03.322Z,8996.00
2022-10-23T12:29:03.895Z,8604.00
2022-10-23T12:30:03.371Z,8976.00
2022-10-23T12:31:03.347Z,8136.00
2022-10-23T12:32:03.676Z,7888.00
2022-10-23T12:33:03.060Z,7980.00
2022-10-23T12:34:02.991Z,8244.00
2022-10-23T12:35:03.088Z,8248.00
2022-10-23T12:36:03.596Z,8272.00
2022-10-23T12:37:03.410Z,8196.00
2022-10-23T12:38:02.942Z,8248.00
2022-10-23T12:39:02.683Z,8360.00
2022-10-23T12:40:02.932Z,8500.00